Time;durP1;ratioP1;P1;durP2;ratioP2;P2;SDS_P1;SDS_P2;PMS_P1;PMS_P2;Temp;Humidity;BMP_temperature;BMP_pressure;BME280_temperature;BME280_humidity;BME280_pressure;Samples;Min_cycle;Max_cycle;Signal;HPM_P1;HPM_P2
2022/11/09 00:00:44;;;;;;;4.35;2.72;;;14.00;96.50;;;;;;5002710;28;20053;-69
2022/11/09 00:03:10;;;;;;;3.15;2.28;;;14.00;96.50;;;;;;4999117;28;20042;-69
2022/11/09 00:05:36;;;;;;;6.25;2.58;;;14.00;96.50;;;;;;4998493;28;20038;-69
2022/11/09 00:08:07;;;;;;;3.25;2.22;;;14.00;96.40;;;;;;4997768;28;20045;-69
2022/11/09 00:10:33;;;;;;;6.65;2.72;;;14.00;96.40;;;;;;4999100;28;20038;-69
2022/11/09 00:12:59;;;;;;;2.83;2.00;;;14.00;96.40;;;;;;5002596;28;20053;-69
2022/11/09 00:15:24;;;;;;;3.65;2.10;;;14.00;96.40;;;;;;4998794;28;20133;-71
2022/11/09 00:17:50;;;;;;;3.25;2.30;;;14.00;96.50;;;;;;4996982;28;20109;-69
2022/11/09 00:20:16;;;;;;;4.28;2.58;;;14.00;96.40;;;;;;5000199;28;20441;-69
2022/11/09 00:22:47;;;;;;;4.57;2.75;;;14.00;96.40;;;;;;4998001;28;20022;-69
2022/11/09 00:25:12;;;;;;;3.10;2.25;;;13.90;96.30;;;;;;4999416;28;20409;-69
2022/11/09 00:27:38;;;;;;;3.80;2.28;;;14.00;96.40;;;;;;5001675;28;20034;-70
2022/11/09 00:30:04;;;;;;;4.57;2.25;;;14.00;96.40;;;;;;4998770;28;20041;-69
2022/11/09 00:32:30;;;;;;;5.05;2.80;;;13.90;96.30;;;;;;4997838;28;20488;-69
2022/11/09 00:34:56;;;;;;;3.65;2.35;;;14.00;96.40;;;;;;4999177;28;20037;-69
2022/11/09 00:37:21;;;;;;;3.35;2.30;;;14.00;96.40;;;;;;5001287;28;20048;-69
2022/11/09 00:39:47;;;;;;;5.55;2.50;;;13.90;96.30;;;;;;5005660;28;20076;-70
2022/11/09 00:42:12;;;;;;;4.72;2.80;;;14.00;96.30;;;;;;5003888;28;20030;-70
2022/11/09 00:44:38;;;;;;;5.13;2.40;;;13.90;96.30;;;;;;5001096;28;20441;-69
2022/11/09 00:53:47;;;;;;;3.90;2.60;;;14.00;96.30;;;;;;5007011;28;20389;-69
2022/11/09 00:56:14;;;;;;;4.88;2.30;;;13.90;96.30;;;;;;5002706;28;20037;-70
2022/11/09 00:58:40;;;;;;;5.60;2.53;;;14.00;96.30;;;;;;5001359;28;21645;-70
2022/11/09 01:01:12;;;;;;;5.70;2.83;;;13.90;96.30;;;;;;5002753;28;20049;-69
2022/11/09 01:03:38;;;;;;;3.20;2.25;;;14.00;96.30;;;;;;4999123;28;20086;-69
2022/11/09 01:06:04;;;;;;;4.05;2.65;;;14.00;96.20;;;;;;5002746;28;20030;-69
2022/11/09 01:08:31;;;;;;;3.55;2.50;;;13.90;96.30;;;;;;5002282;28;20029;-68
2022/11/09 01:10:56;;;;;;;3.95;2.30;;;13.90;96.20;;;;;;5003341;28;20117;-69
2022/11/09 01:13:22;;;;;;;3.88;2.58;;;13.90;96.20;;;;;;5002473;28;20137;-69
2022/11/09 01:15:50;;;;;;;6.30;2.53;;;14.00;96.20;;;;;;5006946;28;20088;-70
2022/11/09 01:18:18;;;;;;;5.22;2.70;;;14.00;96.20;;;;;;5001694;28;20485;-70
2022/11/09 01:20:47;;;;;;;3.35;2.08;;;14.00;96.20;;;;;;5000992;28;20072;-69
2022/11/09 01:23:15;;;;;;;4.72;2.35;;;13.90;96.10;;;;;;5002110;28;20073;-70
2022/11/09 01:25:41;;;;;;;3.22;2.25;;;13.90;96.10;;;;;;5004101;28;20393;-69
2022/11/09 01:28:07;;;;;;;2.97;2.25;;;13.90;96.20;;;;;;5003799;28;20037;-69
2022/11/09 01:30:43;;;;;;;3.95;2.80;;;13.90;96.20;;;;;;5002701;28;20508;-69
2022/11/09 01:33:11;;;;;;;4.03;2.45;;;13.80;96.10;;;;;;5000359;28;21327;-69
2022/11/09 01:35:39;;;;;;;4.88;2.63;;;13.90;96.20;;;;;;5002900;28;20480;-69
2022/11/09 01:38:06;;;;;;;4.45;2.30;;;13.80;96.10;;;;;;5002630;28;20036;-69
2022/11/09 01:40:35;;;;;;;3.65;2.22;;;13.80;96.10;;;;;;5007119;28;20025;-69
2022/11/09 01:43:18;;;;;;;4.90;3.00;;;13.80;96.10;;;;;;4999294;28;20033;-69
2022/11/09 01:46:01;;;;;;;4.25;2.47;;;13.80;96.10;;;;;;5002100;28;20413;-69
2022/11/09 01:48:38;;;;;;;3.88;2.67;;;13.80;96.10;;;;;;5000113;28;20083;-69
2022/11/09 01:51:29;;;;;;;4.20;2.72;;;13.80;96.10;;;;;;5002902;28;20065;-69
2022/11/09 01:53:59;;;;;;;4.80;2.55;;;13.70;96.10;;;;;;5003293;28;20103;-69
2022/11/09 01:56:26;;;;;;;4.07;2.40;;;13.70;96.10;;;;;;5000859;28;20565;-69
2022/11/09 01:58:58;;;;;;;4.47;2.33;;;13.70;96.20;;;;;;4999741;28;20120;-70
2022/11/09 02:01:24;;;;;;;3.40;2.35;;;13.70;96.20;;;;;;5002775;28;20041;-69
2022/11/09 02:04:20;;;;;;;3.63;2.35;;;13.70;96.20;;;;;;4999508;28;20056;-69
2022/11/09 02:06:48;;;;;;;3.72;2.38;;;13.70;96.10;;;;;;5000913;28;20028;-68
2022/11/09 02:09:24;;;;;;;3.50;2.47;;;13.60;96.10;;;;;;5002048;28;20469;-69
2022/11/09 02:11:50;;;;;;;4.72;2.65;;;13.60;96.10;;;;;;5008540;28;20018;-69
2022/11/09 02:14:16;;;;;;;3.70;2.25;;;13.60;96.10;;;;;;5006435;28;20033;-69
2022/11/09 02:16:42;;;;;;;5.03;2.38;;;13.50;96.10;;;;;;4999955;28;20136;-68
2022/11/09 02:19:08;;;;;;;4.47;2.30;;;13.60;96.20;;;;;;5001283;28;20030;-68
2022/11/09 02:21:34;;;;;;;3.85;2.20;;;13.50;96.20;;;;;;5002378;28;20536;-68
2022/11/09 02:24:00;;;;;;;3.60;2.40;;;13.50;96.30;;;;;;5002575;28;20037;-68
2022/11/09 02:26:39;;;;;;;4.18;2.22;;;13.50;96.30;;;;;;5001124;28;20030;-69
2022/11/09 02:29:08;;;;;;;3.65;2.33;;;13.50;96.30;;;;;;5000456;28;20113;-69
2022/11/09 02:31:45;;;;;;;3.28;2.17;;;13.40;96.30;;;;;;5002877;28;20034;-68
2022/11/09 02:34:14;;;;;;;5.18;2.70;;;13.40;96.40;;;;;;5002426;28;20037;-69
2022/11/09 02:36:39;;;;;;;5.32;2.47;;;13.40;96.40;;;;;;5000653;28;20042;-68
2022/11/09 02:39:06;;;;;;;4.10;2.35;;;13.40;96.40;;;;;;5001237;28;20049;-67
2022/11/09 02:41:37;;;;;;;4.22;2.40;;;13.40;96.40;;;;;;5000675;28;20021;-68
2022/11/09 02:44:02;;;;;;;5.72;2.60;;;13.40;96.40;;;;;;4999808;28;21022;-68
2022/11/09 02:46:33;;;;;;;4.50;2.60;;;13.30;96.40;;;;;;4999601;28;20105;-68
2022/11/09 02:49:00;;;;;;;3.28;2.25;;;13.30;96.50;;;;;;4998047;28;20030;-69
2022/11/09 02:51:25;;;;;;;3.08;2.25;;;13.30;96.70;;;;;;5002486;28;20098;-68
2022/11/09 02:53:51;;;;;;;4.07;2.40;;;13.30;96.50;;;;;;4999315;28;20026;-68
2022/11/09 02:56:17;;;;;;;4.25;2.45;;;13.20;96.60;;;;;;5000360;28;20088;-67
2022/11/09 02:58:44;;;;;;;3.50;2.40;;;13.20;96.60;;;;;;5000742;28;20026;-67
2022/11/09 03:01:09;;;;;;;4.80;2.35;;;13.20;96.60;;;;;;5001967;28;20104;-67
2022/11/09 03:03:35;;;;;;;4.85;2.40;;;13.10;96.60;;;;;;5000464;28;20108;-67
2022/11/09 03:06:02;;;;;;;4.45;2.78;;;13.20;96.70;;;;;;5000314;28;20055;-69
2022/11/09 03:08:28;;;;;;;4.22;2.70;;;13.20;96.70;;;;;;4999122;28;20061;-69
2022/11/09 03:10:54;;;;;;;3.38;2.33;;;13.10;96.60;;;;;;5006662;28;20065;-69
2022/11/09 03:13:20;;;;;;;6.03;2.58;;;13.10;96.60;;;;;;5000301;28;20133;-68
2022/11/09 03:15:45;;;;;;;2.90;2.15;;;13.00;96.60;;;;;;5000955;28;20092;-68
2022/11/09 03:18:11;;;;;;;4.88;2.20;;;13.00;97.00;;;;;;4999298;28;20022;-69
2022/11/09 03:20:36;;;;;;;4.85;2.35;;;13.00;96.90;;;;;;4999845;28;20034;-69
2022/11/09 03:23:02;;;;;;;4.15;2.38;;;13.00;96.90;;;;;;4998936;28;20049;-68
2022/11/09 03:25:28;;;;;;;4.50;2.38;;;13.00;96.90;;;;;;5000534;28;20080;-69
2022/11/09 03:28:02;;;;;;;4.18;2.50;;;13.00;96.90;;;;;;5000006;28;20042;-68
2022/11/09 03:30:28;;;;;;;3.72;2.45;;;12.90;97.00;;;;;;5000984;28;20025;-68
2022/11/09 03:33:08;;;;;;;3.50;2.15;;;13.00;97.00;;;;;;4998075;28;20576;-69
2022/11/09 03:35:35;;;;;;;4.70;2.22;;;13.00;97.00;;;;;;5000852;28;20184;-68
2022/11/09 03:38:02;;;;;;;3.65;2.13;;;13.00;97.00;;;;;;4999131;28;20061;-69
2022/11/09 03:40:27;;;;;;;4.70;2.38;;;13.10;97.00;;;;;;4999724;28;20018;-68
2022/11/09 03:42:53;;;;;;;3.30;2.30;;;13.10;97.00;;;;;;4999672;28;20593;-68
2022/11/09 03:45:18;;;;;;;3.50;2.33;;;13.10;97.00;;;;;;4998368;28;20046;-68
2022/11/09 03:47:45;;;;;;;2.75;1.85;;;13.10;97.00;;;;;;4999900;28;20029;-68
2022/11/09 03:50:12;;;;;;;3.20;2.30;;;13.10;96.90;;;;;;5000993;28;20377;-68
2022/11/09 03:52:38;;;;;;;2.92;2.17;;;13.10;97.00;;;;;;4999569;28;20041;-68
2022/11/09 03:55:05;;;;;;;3.30;2.28;;;13.20;97.00;;;;;;5001604;28;20053;-68
2022/11/09 03:57:31;;;;;;;3.20;2.28;;;13.20;97.00;;;;;;4999514;28;20026;-69
2022/11/09 03:59:57;;;;;;;4.75;2.70;;;13.20;97.00;;;;;;5000251;28;20786;-67
2022/11/09 04:02:23;;;;;;;5.57;2.42;;;13.30;96.90;;;;;;5001543;28;20026;-68
2022/11/09 04:04:49;;;;;;;2.78;1.90;;;13.30;96.90;;;;;;4999057;28;20030;-68
2022/11/09 04:07:15;;;;;;;2.83;2.42;;;13.30;96.90;;;;;;4999469;28;20025;-67
2022/11/09 04:09:40;;;;;;;3.72;2.50;;;13.40;96.90;;;;;;5000140;28;20021;-68
2022/11/09 04:12:06;;;;;;;4.55;2.47;;;13.40;96.90;;;;;;5001980;28;20030;-68
2022/11/09 04:14:33;;;;;;;5.18;2.30;;;13.40;96.90;;;;;;5000449;28;20031;-68
2022/11/09 04:16:58;;;;;;;4.00;2.22;;;13.50;97.00;;;;;;5006712;28;20037;-68
2022/11/09 04:19:24;;;;;;;4.15;2.30;;;13.50;96.90;;;;;;5011735;28;20128;-69
2022/11/09 04:21:50;;;;;;;4.10;2.42;;;13.50;97.00;;;;;;5011972;28;20500;-68
2022/11/09 04:24:16;;;;;;;11.93;2.60;;;13.50;97.00;;;;;;5010296;28;20022;-69
2022/11/09 04:26:41;;;;;;;3.35;2.15;;;13.50;97.00;;;;;;5011713;28;20377;-68
2022/11/09 04:29:07;;;;;;;3.20;2.17;;;13.60;97.00;;;;;;5012063;28;20022;-69
2022/11/09 04:31:33;;;;;;;3.70;2.45;;;13.60;97.00;;;;;;5011037;28;20101;-69
2022/11/09 04:33:58;;;;;;;3.50;2.22;;;13.60;97.00;;;;;;4999464;28;20117;-68
2022/11/09 04:36:24;;;;;;;4.03;2.65;;;13.60;97.10;;;;;;4999671;28;20474;-68
2022/11/09 04:38:49;;;;;;;3.22;2.03;;;13.60;97.10;;;;;;4998552;28;20033;-69
2022/11/09 04:41:15;;;;;;;3.70;2.45;;;13.60;97.10;;;;;;4997332;28;20022;-69
2022/11/09 04:43:41;;;;;;;7.00;2.88;;;13.60;97.20;;;;;;4999182;28;20141;-69
2022/11/09 04:46:06;;;;;;;4.68;2.55;;;13.60;97.30;;;;;;4999858;28;20034;-69
2022/11/09 04:48:53;;;;;;;5.60;2.75;;;13.60;97.50;;;;;;4999800;28;20022;-69
2022/11/09 04:51:20;;;;;;;4.25;2.15;;;13.60;97.70;;;;;;4998863;28;20092;-68
2022/11/09 04:53:46;;;;;;;3.67;2.28;;;13.60;97.90;;;;;;4999073;28;20049;-69
2022/11/09 04:56:12;;;;;;;5.43;2.95;;;13.60;98.00;;;;;;4997061;28;20137;-69
2022/11/09 04:58:38;;;;;;;5.20;2.35;;;13.60;98.10;;;;;;4999513;28;22150;-68
2022/11/09 05:01:07;;;;;;;4.60;2.60;;;13.60;98.20;;;;;;4999578;28;20038;-68
2022/11/09 05:03:33;;;;;;;6.32;2.83;;;13.60;98.40;;;;;;4999001;28;20021;-69
2022/11/09 05:06:00;;;;;;;3.75;2.92;;;13.60;98.50;;;;;;4999018;28;20036;-69
2022/11/09 05:08:27;;;;;;;3.42;2.60;;;13.60;98.60;;;;;;4999899;28;20029;-69
2022/11/09 05:10:59;;;;;;;3.92;2.65;;;13.60;98.70;;;;;;4999500;28;20029;-70
2022/11/09 05:13:24;;;;;;;4.18;2.78;;;13.60;98.90;;;;;;5002993;28;20572;-69
2022/11/09 05:15:50;;;;;;;3.75;2.63;;;13.60;98.90;;;;;;4998041;28;20045;-69
2022/11/09 05:18:15;;;;;;;3.63;2.88;;;13.50;99.00;;;;;;4997749;28;20028;-69
2022/11/09 05:20:41;;;;;;;4.13;2.45;;;13.60;99.00;;;;;;5001732;28;20038;-69
2022/11/09 05:25:52;;;;;;;3.78;2.50;;;13.60;99.20;;;;;;5003340;28;20030;-69
2022/11/09 05:28:18;;;;;;;4.90;2.40;;;13.50;99.20;;;;;;5005146;28;20393;-70
2022/11/09 05:30:44;;;;;;;4.50;2.83;;;13.50;99.30;;;;;;5006303;28;20389;-69
2022/11/09 05:33:09;;;;;;;4.00;2.63;;;13.60;99.40;;;;;;5005697;28;20038;-69
2022/11/09 05:35:35;;;;;;;4.47;2.40;;;13.50;99.60;;;;;;5013544;28;20030;-69
2022/11/09 05:38:00;;;;;;;4.90;2.95;;;13.50;99.40;;;;;;5007312;28;20037;-69
2022/11/09 05:40:26;;;;;;;4.93;2.83;;;13.50;99.50;;;;;;5008677;28;20231;-69
2022/11/09 05:42:52;;;;;;;4.78;2.83;;;13.50;99.60;;;;;;5005102;28;20029;-68
2022/11/09 05:45:18;;;;;;;4.18;2.85;;;13.50;99.70;;;;;;5006667;28;20485;-69
2022/11/09 05:47:50;;;;;;;4.60;2.72;;;13.50;99.80;;;;;;5006644;28;20026;-69
2022/11/09 05:50:16;;;;;;;4.75;2.65;;;13.60;99.90;;;;;;5007732;28;20398;-68
2022/11/09 05:52:41;;;;;;;4.65;2.95;;;13.50;99.90;;;;;;5005618;28;20037;-69
2022/11/09 05:55:08;;;;;;;4.47;2.75;;;13.60;99.90;;;;;;5004893;28;20123;-68
2022/11/09 05:57:33;;;;;;;3.28;2.58;;;13.60;99.90;;;;;;5006036;28;20029;-69
2022/11/09 05:59:59;;;;;;;6.22;3.33;;;13.50;99.90;;;;;;5005220;28;20030;-69
2022/11/09 06:02:24;;;;;;;4.05;2.72;;;13.60;99.90;;;;;;5004874;28;20030;-69
2022/11/09 06:04:50;;;;;;;3.58;2.63;;;13.60;99.90;;;;;;5004705;28;20515;-69
2022/11/09 06:07:16;;;;;;;5.05;3.30;;;13.60;99.90;;;;;;5006012;28;20034;-69
2022/11/09 06:09:43;;;;;;;4.88;3.03;;;13.60;99.90;;;;;;5005666;28;20030;-69
2022/11/09 06:12:09;;;;;;;5.80;2.80;;;13.60;99.90;;;;;;5005459;28;20562;-69
2022/11/09 06:14:34;;;;;;;4.50;3.17;;;13.70;99.90;;;;;;5004776;28;20076;-69
2022/11/09 06:17:00;;;;;;;4.95;2.97;;;13.60;99.90;;;;;;5006353;28;20121;-68
2022/11/09 06:19:25;;;;;;;5.90;3.20;;;13.60;99.90;;;;;;5005728;28;20111;-69
2022/11/09 06:21:51;;;;;;;4.68;2.47;;;13.60;99.90;;;;;;5006877;28;20102;-69
2022/11/09 06:24:16;;;;;;;3.95;2.70;;;13.70;99.90;;;;;;5003535;28;20030;-69
2022/11/09 06:26:42;;;;;;;6.22;3.08;;;13.60;99.90;;;;;;5004032;28;20033;-69
2022/11/09 06:29:08;;;;;;;4.63;3.35;;;13.70;99.90;;;;;;5005854;28;20030;-68
2022/11/09 06:31:34;;;;;;;6.00;3.50;;;13.70;99.90;;;;;;5003983;28;20037;-69
2022/11/09 06:34:00;;;;;;;5.47;2.70;;;13.70;99.90;;;;;;5001100;28;20188;-69
2022/11/09 06:36:26;;;;;;;4.93;2.95;;;13.70;99.90;;;;;;5003632;28;20564;-68
2022/11/09 06:38:52;;;;;;;7.97;3.47;;;13.70;99.90;;;;;;5002096;28;20023;-68
2022/11/09 06:41:19;;;;;;;4.50;3.10;;;13.80;99.90;;;;;;5004849;28;20026;-68
2022/11/09 06:43:45;;;;;;;5.50;3.35;;;13.70;99.90;;;;;;5001919;28;20064;-68
2022/11/09 06:46:11;;;;;;;9.38;3.45;;;13.70;99.90;;;;;;5003216;28;20037;-68
2022/11/09 06:48:37;;;;;;;4.45;2.58;;;13.80;99.90;;;;;;4998504;28;20052;-68
2022/11/09 06:51:05;;;;;;;6.35;3.50;;;13.80;99.90;;;;;;5002055;28;20473;-68
2022/11/09 06:53:33;;;;;;;6.25;3.10;;;13.80;99.90;;;;;;5000776;28;20083;-68
2022/11/09 06:56:01;;;;;;;4.82;2.92;;;13.80;99.90;;;;;;4999810;28;20080;-69
2022/11/09 06:58:27;;;;;;;4.97;3.10;;;13.80;99.90;;;;;;5000122;28;20129;-69
2022/11/09 07:00:54;;;;;;;4.90;3.08;;;13.80;99.90;;;;;;5002028;28;20064;-69
2022/11/09 07:03:21;;;;;;;7.50;3.40;;;13.80;99.90;;;;;;5000389;28;20026;-69
2022/11/09 07:05:49;;;;;;;6.88;4.00;;;13.80;99.90;;;;;;5002160;28;20052;-68
2022/11/09 07:08:15;;;;;;;5.72;4.20;;;13.80;99.90;;;;;;5002217;28;20025;-69
2022/11/09 07:10:41;;;;;;;7.93;3.67;;;13.80;99.90;;;;;;5006377;28;20030;-69
2022/11/09 07:13:07;;;;;;;5.85;3.47;;;13.80;99.90;;;;;;5002545;28;20022;-69
2022/11/09 07:15:34;;;;;;;9.18;4.25;;;13.80;99.90;;;;;;4999393;28;20033;-69
2022/11/09 07:18:01;;;;;;;4.85;3.42;;;13.80;99.90;;;;;;5001772;28;21645;-70
2022/11/09 07:20:27;;;;;;;6.15;3.67;;;13.90;99.90;;;;;;4999743;28;20038;-71
2022/11/09 07:22:56;;;;;;;6.25;2.72;;;13.80;99.90;;;;;;5003889;28;20113;-69
2022/11/09 07:25:23;;;;;;;4.78;3.00;;;13.80;99.90;;;;;;5003364;28;20026;-68
2022/11/09 07:27:49;;;;;;;8.18;3.90;;;13.80;99.90;;;;;;5001552;28;20405;-67
2022/11/09 07:30:15;;;;;;;6.90;3.78;;;13.80;99.90;;;;;;5000544;28;20033;-68
2022/11/09 07:32:42;;;;;;;6.85;3.45;;;13.80;99.90;;;;;;5000769;28;20034;-68
2022/11/09 07:35:08;;;;;;;5.22;3.50;;;13.80;99.90;;;;;;5000926;28;20029;-68
2022/11/09 07:37:35;;;;;;;6.88;3.80;;;13.80;99.90;;;;;;5001176;28;20057;-68
2022/11/09 07:40:00;;;;;;;4.43;3.05;;;13.80;99.90;;;;;;5002332;28;20026;-68
2022/11/09 07:42:27;;;;;;;4.47;3.38;;;13.80;99.90;;;;;;5004546;28;20048;-68
2022/11/09 07:44:54;;;;;;;5.38;3.38;;;13.80;99.90;;;;;;5002614;28;22113;-68
2022/11/09 07:47:19;;;;;;;5.10;3.58;;;13.70;99.90;;;;;;5007084;28;20026;-68
2022/11/09 07:49:45;;;;;;;5.78;4.55;;;13.70;99.90;;;;;;5008082;28;20024;-68
2022/11/09 07:52:12;;;;;;;5.63;3.65;;;13.70;99.90;;;;;;5002648;28;20034;-69
2022/11/09 07:54:38;;;;;;;5.85;3.90;;;13.70;99.90;;;;;;5002265;28;20052;-67
2022/11/09 07:57:04;;;;;;;5.93;3.38;;;13.80;99.90;;;;;;5004742;28;20040;-68
2022/11/09 07:59:30;;;;;;;6.95;4.18;;;13.80;99.90;;;;;;5001359;28;20036;-68
2022/11/09 08:01:56;;;;;;;5.97;3.75;;;13.80;99.90;;;;;;5001563;28;20025;-68
2022/11/09 08:04:22;;;;;;;5.53;3.70;;;13.90;99.90;;;;;;5003111;28;20033;-69
2022/11/09 08:06:52;;;;;;;6.40;4.10;;;13.90;99.90;;;;;;5003641;28;20109;-68
2022/11/09 08:09:18;;;;;;;4.82;3.92;;;13.90;99.90;;;;;;5002063;28;20049;-68
2022/11/09 08:11:46;;;;;;;7.82;4.15;;;13.90;99.90;;;;;;5000244;28;20028;-68
2022/11/09 08:14:13;;;;;;;6.70;3.75;;;13.90;99.90;;;;;;5003841;28;20193;-67
2022/11/09 08:16:38;;;;;;;5.85;3.90;;;14.00;99.90;;;;;;5003990;28;20045;-69
2022/11/09 08:19:04;;;;;;;7.57;4.00;;;14.00;99.90;;;;;;5001339;28;20056;-68
2022/11/09 08:21:30;;;;;;;7.03;4.15;;;14.00;99.90;;;;;;5002040;28;20033;-69
2022/11/09 08:23:55;;;;;;;5.60;3.65;;;14.00;99.90;;;;;;5001539;28;20044;-68
2022/11/09 08:26:21;;;;;;;5.57;3.70;;;14.00;99.90;;;;;;5002233;28;20027;-68
2022/11/09 08:28:47;;;;;;;6.22;3.60;;;14.00;99.90;;;;;;5002643;28;20026;-68
2022/11/09 08:31:12;;;;;;;7.03;4.53;;;14.00;99.90;;;;;;5004230;28;20030;-68
2022/11/09 08:33:40;;;;;;;6.65;3.65;;;14.00;99.90;;;;;;5003159;28;20026;-69
2022/11/09 08:36:16;;;;;;;7.05;3.58;;;14.00;99.90;;;;;;5004216;28;20046;-69
2022/11/09 08:38:43;;;;;;;5.45;3.50;;;14.00;99.90;;;;;;5019375;28;20026;-71
2022/11/09 08:41:10;;;;;;;5.93;3.75;;;14.00;99.90;;;;;;5005881;28;20030;-70
2022/11/09 08:43:35;;;;;;;5.80;3.90;;;14.00;99.90;;;;;;5013527;28;20034;-70
2022/11/09 08:46:01;;;;;;;4.53;3.65;;;14.00;99.90;;;;;;5015907;28;20113;-70
2022/11/09 08:48:27;;;;;;;6.43;4.10;;;14.10;99.90;;;;;;5028393;28;20033;-69
2022/11/09 08:50:55;;;;;;;8.63;4.13;;;14.10;99.90;;;;;;5014244;28;20034;-69
2022/11/09 08:53:22;;;;;;;6.05;3.70;;;14.10;99.90;;;;;;5009600;28;20113;-70
2022/11/09 08:55:48;;;;;;;8.55;4.07;;;14.10;99.90;;;;;;5008565;28;20030;-70
2022/11/09 08:58:14;;;;;;;6.70;4.18;;;14.10;99.90;;;;;;5008339;28;20081;-69
2022/11/09 09:00:39;;;;;;;6.20;4.00;;;14.10;99.90;;;;;;5009670;28;20079;-68
2022/11/09 09:03:05;;;;;;;5.75;3.85;;;14.10;99.90;;;;;;5010359;28;20030;-70
2022/11/09 09:05:33;;;;;;;5.03;3.83;;;14.10;99.90;;;;;;5011998;28;20038;-68
2022/11/09 09:07:59;;;;;;;5.53;4.18;;;14.10;99.90;;;;;;5015807;28;20123;-69
2022/11/09 09:10:25;;;;;;;5.28;3.97;;;14.10;99.90;;;;;;5016779;28;20069;-70
2022/11/09 09:12:50;;;;;;;5.93;3.92;;;14.10;99.90;;;;;;5009648;28;20065;-68
2022/11/09 09:15:16;;;;;;;7.35;4.15;;;14.10;99.90;;;;;;5006622;28;20033;-68
2022/11/09 09:17:42;;;;;;;6.13;4.20;;;14.20;99.90;;;;;;5003416;28;20106;-68
2022/11/09 09:20:09;;;;;;;5.85;3.85;;;14.20;99.90;;;;;;5003252;28;20045;-69
2022/11/09 09:22:35;;;;;;;4.47;3.42;;;14.20;99.90;;;;;;5004394;28;20044;-69
2022/11/09 09:25:01;;;;;;;7.15;4.15;;;14.30;99.90;;;;;;5005309;28;20034;-68
2022/11/09 09:27:28;;;;;;;6.53;3.95;;;14.30;99.90;;;;;;5004468;28;20073;-69
2022/11/09 09:29:54;;;;;;;6.00;3.88;;;14.30;99.90;;;;;;5006941;28;20053;-69
2022/11/09 09:32:20;;;;;;;6.40;4.25;;;14.40;99.90;;;;;;5005944;28;20437;-69
2022/11/09 09:34:46;;;;;;;7.18;4.60;;;14.40;99.90;;;;;;5000744;28;20034;-69
2022/11/09 09:37:12;;;;;;;6.95;3.75;;;14.40;99.90;;;;;;5005562;28;20813;-70
2022/11/09 09:39:38;;;;;;;7.50;4.97;;;14.50;99.90;;;;;;5004847;28;20045;-68
2022/11/09 09:42:09;;;;;;;8.25;4.30;;;14.50;99.90;;;;;;5001302;28;20116;-68
2022/11/09 09:44:55;;;;;;;6.03;3.50;;;14.60;99.90;;;;;;5005135;28;20037;-69
2022/11/09 09:47:36;;;;;;;5.65;4.00;;;14.60;99.90;;;;;;5005348;28;20035;-70
2022/11/09 09:50:13;;;;;;;7.22;4.28;;;14.60;99.90;;;;;;5001681;28;20034;-69
2022/11/09 09:53:11;;;;;;;5.18;4.03;;;14.60;99.90;;;;;;5003517;28;20032;-69
2022/11/09 09:55:44;;;;;;;5.70;3.25;;;14.60;99.90;;;;;;5004000;28;20042;-69
2022/11/09 09:58:40;;;;;;;7.32;4.25;;;14.60;99.90;;;;;;5004404;28;20038;-69
2022/11/09 10:01:16;;;;;;;5.10;3.80;;;14.60;99.90;;;;;;5002491;28;20050;-69
2022/11/09 10:03:41;;;;;;;5.65;4.22;;;14.50;99.90;;;;;;5003527;28;20030;-70
2022/11/09 10:06:29;;;;;;;6.50;3.97;;;14.60;99.90;;;;;;5002884;28;20030;-70
2022/11/09 10:09:15;;;;;;;6.07;4.88;;;14.60;99.90;;;;;;5001616;28;20026;-69
2022/11/09 10:11:42;;;;;;;7.03;4.22;;;14.50;99.90;;;;;;5003220;28;20091;-69
2022/11/09 10:14:10;;;;;;;5.38;3.92;;;14.50;99.90;;;;;;5004437;28;20088;-69
2022/11/09 10:16:45;;;;;;;5.28;3.47;;;14.50;99.90;;;;;;5003830;28;20132;-69
2022/11/09 10:19:10;;;;;;;;;;;14.50;99.90;;;;;;5005180;28;20107;-70
2022/11/09 10:21:55;;;;;;;4.55;3.70;;;14.50;99.90;;;;;;5005486;28;20669;-69
2022/11/09 10:24:30;;;;;;;5.00;3.58;;;14.50;99.90;;;;;;5004150;28;20033;-69
2022/11/09 10:26:58;;;;;;;5.88;3.70;;;14.50;99.90;;;;;;5006712;28;20038;-69
2022/11/09 10:29:24;;;;;;;5.82;3.40;;;14.50;99.90;;;;;;5004105;28;20026;-69
2022/11/09 10:32:21;;;;;;;6.35;3.90;;;14.60;99.90;;;;;;5002520;28;20030;-69
2022/11/09 10:34:51;;;;;;;8.75;4.40;;;14.60;99.90;;;;;;5003067;28;20088;-69
2022/11/09 10:37:32;;;;;;;4.80;3.45;;;14.60;99.90;;;;;;5002058;28;20124;-70
2022/11/09 10:40:22;;;;;;;5.60;4.20;;;14.60;99.90;;;;;;5004379;28;20354;-69
2022/11/09 10:42:55;;;;;;;8.82;4.55;;;14.70;99.90;;;;;;5004156;28;20036;-69
2022/11/09 10:45:34;;;;;;;9.90;4.00;;;14.80;99.90;;;;;;4999899;28;20069;-69
2022/11/09 10:48:01;;;;;;;5.85;3.90;;;14.80;99.90;;;;;;5000041;28;20091;-70
2022/11/09 10:50:53;;;;;;;6.32;3.92;;;14.80;99.90;;;;;;4999944;28;20033;-70
2022/11/09 10:53:22;;;;;;;5.43;3.53;;;14.80;99.90;;;;;;5000622;28;20041;-70
2022/11/09 10:56:17;;;;;;;7.13;3.50;;;14.90;99.90;;;;;;5000036;28;20033;-70
2022/11/09 10:58:52;;;;;;;5.22;3.60;;;14.90;99.90;;;;;;4999496;28;20038;-70
2022/11/09 11:01:23;;;;;;;8.32;3.83;;;14.90;99.90;;;;;;5000831;28;20071;-70
2022/11/09 11:03:54;;;;;;;4.45;3.35;;;14.90;99.90;;;;;;4998812;28;20117;-70
2022/11/09 11:06:20;;;;;;;5.28;3.50;;;14.90;99.90;;;;;;5002246;28;20030;-70
2022/11/09 11:08:57;;;;;;;5.40;3.63;;;14.90;99.90;;;;;;5004773;28;20449;-71
2022/11/09 11:11:22;;;;;;;5.13;3.50;;;14.90;99.90;;;;;;5002168;28;20045;-71
2022/11/09 11:13:58;;;;;;;5.97;3.55;;;15.00;99.90;;;;;;5001015;28;20030;-71
2022/11/09 11:16:33;;;;;;;6.15;3.22;;;15.00;99.90;;;;;;5000260;28;20042;-71
2022/11/09 11:19:00;;;;;;;5.97;3.13;;;15.00;99.90;;;;;;4999251;28;20053;-71
2022/11/09 11:21:27;;;;;;;4.18;3.20;;;15.00;99.90;;;;;;5004647;28;20610;-71
2022/11/09 11:24:16;;;;;;;4.60;3.13;;;15.00;99.90;;;;;;5014061;28;20026;-71
2022/11/09 11:27:08;;;;;;;5.80;3.40;;;15.10;99.90;;;;;;5000512;28;20025;-71
2022/11/09 11:29:48;;;;;;;5.45;3.35;;;15.10;99.90;;;;;;4998719;28;20033;-71
2022/11/09 11:32:16;;;;;;;4.95;3.00;;;15.20;99.90;;;;;;4997278;28;20042;-71
2022/11/09 11:34:42;;;;;;;5.55;3.20;;;15.20;99.90;;;;;;5001392;28;20037;-71
2022/11/09 11:37:22;;;;;;;5.00;2.97;;;15.30;99.90;;;;;;5001238;28;20070;-71
2022/11/09 11:39:59;;;;;;;4.28;2.92;;;15.40;99.90;;;;;;4999952;28;20071;-71
2022/11/09 11:42:41;;;;;;;4.63;3.25;;;15.50;99.90;;;;;;5001031;28;20037;-71
2022/11/09 11:45:23;;;;;;;4.18;2.83;;;15.50;99.90;;;;;;5006401;28;20049;-70
2022/11/09 11:48:10;;;;;;;5.25;3.70;;;15.60;99.90;;;;;;5026503;28;20061;-74
2022/11/09 11:50:36;;;;;;;5.47;3.03;;;15.70;99.90;;;;;;5013747;28;20026;-71
2022/11/09 11:53:10;;;;;;;5.82;3.20;;;15.70;99.90;;;;;;5011642;28;20488;-72
2022/11/09 11:55:54;;;;;;;8.48;3.10;;;15.70;99.90;;;;;;5010988;28;20137;-71
2022/11/09 11:58:52;;;;;;;4.78;3.40;;;15.70;99.90;;;;;;5011255;28;20034;-72
2022/11/09 12:01:38;;;;;;;5.03;2.90;;;15.80;99.90;;;;;;5011280;28;20080;-72
2022/11/09 12:04:15;;;;;;;3.25;2.60;;;15.80;99.90;;;;;;5011703;28;20073;-71
2022/11/09 12:06:57;;;;;;;5.13;2.78;;;15.80;99.90;;;;;;5012906;28;20037;-71
2022/11/09 12:09:41;;;;;;;5.55;2.92;;;15.80;99.90;;;;;;5011630;28;20034;-71
2022/11/09 12:12:42;;;;;;;4.13;2.50;;;15.80;99.90;;;;;;5011361;28;20405;-71
2022/11/09 12:15:36;;;;;;;5.00;2.85;;;15.80;99.90;;;;;;5011777;28;20034;-71
2022/11/09 12:18:31;;;;;;;3.92;2.85;;;15.80;99.90;;;;;;4997580;28;20504;-71
2022/11/09 12:21:06;;;;;;;4.40;2.97;;;15.80;99.90;;;;;;5003300;28;20101;-71
2022/11/09 12:23:41;;;;;;;4.88;2.88;;;15.80;99.90;;;;;;5012221;28;20420;-71
2022/11/09 12:26:15;;;;;;;;;;;15.80;99.90;;;;;;5011248;28;20026;-69
2022/11/09 12:29:05;;;;;;;4.00;2.50;;;15.70;99.90;;;;;;5011490;28;20268;-74
2022/11/09 12:31:40;;;;;;;5.82;3.22;;;15.70;99.90;;;;;;5010695;28;20458;-72
2022/11/09 12:34:09;;;;;;;;;;;15.70;99.90;;;;;;4997057;28;20425;-72
2022/11/09 12:36:51;;;;;;;5.05;2.88;;;15.70;99.90;;;;;;5012994;28;19987;-72
2022/11/09 12:39:33;;;;;;;6.80;3.13;;;15.80;99.90;;;;;;5015557;28;20476;-72
2022/11/09 12:42:05;;;;;;;3.45;2.30;;;15.80;99.90;;;;;;5014490;28;20571;-73
2022/11/09 12:44:37;;;;;;;4.28;2.92;;;15.80;99.90;;;;;;5015333;28;20489;-72
2022/11/09 12:47:14;;;;;;;5.00;2.70;;;15.90;99.90;;;;;;5014800;28;20037;-73
2022/11/09 12:49:44;;;;;;;4.20;2.85;;;15.90;99.90;;;;;;5011043;28;20505;-72
2022/11/09 12:52:19;;;;;;;4.07;2.53;;;15.90;99.90;;;;;;5005211;28;20713;-72
2022/11/09 12:54:48;;;;;;;5.30;2.70;;;16.00;99.90;;;;;;5001127;28;20521;-72
2022/11/09 12:57:21;;;;;;;7.43;2.90;;;16.00;99.90;;;;;;5004474;28;20082;-71
2022/11/09 12:59:55;;;;;;;4.70;2.63;;;16.00;99.90;;;;;;5004583;28;20603;-72
2022/11/09 13:02:36;;;;;;;3.83;2.80;;;16.10;99.90;;;;;;5002933;28;20065;-73
2022/11/09 13:05:16;;;;;;;5.75;2.90;;;16.10;99.90;;;;;;5003370;28;20531;-73
2022/11/09 13:07:49;;;;;;;6.72;3.90;;;16.10;99.90;;;;;;5003438;28;20544;-73
2022/11/09 13:10:30;;;;;;;7.40;4.50;;;16.10;99.90;;;;;;5004514;28;20525;-72